createdAt,value
2018-03-26T01:09:05.011Z,9.00
2018-03-26T01:11:33.444Z,9.00
2018-03-26T01:14:02.451Z,8.90
2018-03-26T01:16:30.680Z,8.90
2018-03-26T01:18:58.964Z,8.80
2018-03-26T01:21:27.964Z,8.80
2018-03-26T01:23:57.336Z,8.70
2018-03-26T01:26:25.823Z,8.70
2018-03-26T01:28:55.567Z,8.60
2018-03-26T01:31:23.796Z,8.60
2018-03-26T01:33:52.069Z,8.60
2018-03-26T01:36:20.302Z,8.50
2018-03-26T01:38:48.528Z,8.50
2018-03-26T01:41:18.496Z,8.40
2018-03-26T01:43:47.497Z,8.40
2018-03-26T01:46:15.729Z,8.40
2018-03-26T01:48:44.456Z,8.40
2018-03-26T01:51:12.697Z,8.50
2018-03-26T01:53:40.931Z,8.50
2018-03-26T01:56:11.967Z,8.50
2018-03-26T01:58:40.195Z,8.60
2018-03-26T02:01:09.197Z,8.50
2018-03-26T02:03:37.729Z,8.60
2018-03-26T02:06:06.725Z,8.60
2018-03-26T02:08:34.956Z,8.60
2018-03-26T02:11:03.245Z,8.60
2018-03-26T02:13:32.248Z,8.50
2018-03-26T02:16:01.621Z,8.50
2018-03-26T02:18:30.105Z,8.40
2018-03-26T02:20:58.737Z,8.40
2018-03-26T02:23:28.100Z,8.40
2018-03-26T02:25:58.085Z,8.40
2018-03-26T02:28:26.317Z,8.40
2018-03-26T02:30:54.950Z,8.30
2018-03-26T02:33:23.221Z,8.30
2018-03-26T02:35:52.962Z,8.30
2018-03-26T02:38:21.189Z,8.30
2018-03-26T02:40:50.579Z,8.30
2018-03-26T02:43:18.800Z,8.30
2018-03-26T02:45:47.033Z,8.30
2018-03-26T02:48:15.396Z,8.30
2018-03-26T02:50:43.683Z,8.30
2018-03-26T02:53:13.002Z,8.30
2018-03-26T02:55:41.279Z,8.30
2018-03-26T02:58:09.513Z,8.30
2018-03-26T03:00:37.746Z,8.30
2018-03-26T03:03:06.036Z,8.30
2018-03-26T03:05:34.262Z,8.30
2018-03-26T03:08:02.496Z,8.30
2018-03-26T03:10:31.935Z,8.30
2018-03-26T03:15:30.760Z,8.20
2018-03-26T03:17:59.403Z,8.20
2018-03-26T03:20:28.033Z,8.20
2018-03-26T03:22:56.260Z,8.20
2018-03-26T03:25:24.532Z,8.20
2018-03-26T03:27:52.756Z,8.20
2018-03-26T03:30:20.993Z,8.10
2018-03-26T03:32:49.621Z,8.10
2018-03-26T03:35:17.857Z,8.10
2018-03-26T03:37:46.848Z,8.10
2018-03-26T03:40:15.569Z,8.00
2018-03-26T03:42:43.802Z,8.00
2018-03-26T03:45:12.041Z,8.00
2018-03-26T03:47:41.500Z,8.00
2018-03-26T03:50:09.729Z,8.00
2018-03-26T03:52:37.960Z,8.00
2018-03-26T03:55:06.702Z,7.90
2018-03-26T03:57:35.695Z,7.90
2018-03-26T04:00:04.826Z,7.90
2018-03-26T04:02:37.348Z,7.80
2018-03-26T04:05:06.449Z,7.80
2018-03-26T04:07:36.192Z,7.70
2018-03-26T04:10:05.229Z,7.70
2018-03-26T04:12:33.461Z,7.60
2018-03-26T04:15:02.462Z,7.60
2018-03-26T04:17:30.841Z,7.50
2018-03-26T04:19:59.836Z,7.50
2018-03-26T04:22:28.069Z,7.40
2018-03-26T04:24:57.216Z,7.40
2018-03-26T04:27:25.448Z,7.40
2018-03-26T04:29:53.678Z,7.40
2018-03-26T04:32:23.084Z,7.40
2018-03-26T04:34:51.316Z,7.40
2018-03-26T04:37:19.545Z,7.50
2018-03-26T04:39:47.929Z,7.50
2018-03-26T04:42:16.161Z,7.50
2018-03-26T04:44:44.788Z,7.50
2018-03-26T04:47:13.057Z,7.50
2018-03-26T04:49:42.048Z,7.50
2018-03-26T04:52:10.285Z,7.50
2018-03-26T04:54:38.561Z,7.50
2018-03-26T04:57:06.796Z,7.50
2018-03-26T04:59:35.028Z,7.50
2018-03-26T05:02:03.660Z,7.50
2018-03-26T05:04:32.660Z,7.40
2018-03-26T05:07:00.889Z,7.40
2018-03-26T05:09:29.557Z,7.40
2018-03-26T05:11:57.783Z,7.30
2018-03-26T05:14:27.208Z,7.30
2018-03-26T05:17:05.965Z,7.30
2018-03-26T05:19:35.702Z,7.30
2018-03-26T05:22:04.696Z,7.20
2018-03-26T05:24:33.856Z,7.20
2018-03-26T05:27:02.084Z,7.20
2018-03-26T05:29:30.312Z,7.10
2018-03-26T05:31:58.959Z,7.20
2018-03-26T05:34:27.960Z,7.10
2018-03-26T05:36:56.188Z,7.10
2018-03-26T05:39:24.868Z,7.10
2018-03-26T05:41:54.237Z,7.10
2018-03-26T05:44:22.472Z,7.10
2018-03-26T05:46:51.741Z,7.10
2018-03-26T05:49:20.736Z,7.10
2018-03-26T05:54:18.868Z,7.10
2018-03-26T05:56:48.234Z,7.10
2018-03-26T05:59:17.228Z,7.10
2018-03-26T06:01:46.468Z,7.10
2018-03-26T06:04:15.471Z,7.10
2018-03-26T06:06:43.705Z,7.10
2018-03-26T06:09:12.084Z,7.10
2018-03-26T06:11:41.824Z,7.10
2018-03-26T06:14:10.824Z,7.20
2018-03-26T06:16:49.628Z,7.30
2018-03-26T06:19:17.864Z,7.30
2018-03-26T06:21:46.097Z,7.30
2018-03-26T06:24:15.305Z,7.40
2018-03-26T06:26:45.053Z,7.40
2018-03-26T06:29:14.423Z,7.50
2018-03-26T06:31:42.692Z,7.50
2018-03-26T06:34:11.694Z,7.40
2018-03-26T06:40:23.864Z,7.50
2018-03-26T06:42:52.253Z,7.50
2018-03-26T06:45:21.264Z,7.50
2018-03-26T06:47:49.488Z,7.60
2018-03-26T06:50:17.766Z,7.60
2018-03-26T06:52:45.999Z,7.70
2018-03-26T06:55:14.228Z,7.80
2018-03-26T06:57:44.168Z,7.80
2018-03-26T07:00:12.396Z,7.80
2018-03-26T07:02:40.653Z,7.90
2018-03-26T07:05:09.016Z,7.90
2018-03-26T07:07:37.753Z,8.00
2018-03-26T07:10:06.380Z,8.10
2018-03-26T07:12:34.651Z,8.30
2018-03-26T07:15:02.876Z,8.50
2018-03-26T07:17:31.104Z,8.70
2018-03-26T07:20:00.325Z,9.00
2018-03-26T07:22:28.961Z,9.20
2018-03-26T07:24:57.194Z,9.50
2018-03-26T07:27:25.464Z,9.70
2018-03-26T07:29:53.701Z,9.90
2018-03-26T07:32:21.944Z,10.10
2018-03-26T07:34:50.448Z,10.20
2018-03-26T07:37:20.203Z,10.20
2018-03-26T07:39:48.441Z,10.20
2018-03-26T07:42:16.710Z,10.30
2018-03-26T07:44:44.952Z,10.40
2018-03-26T07:47:13.196Z,10.50
2018-03-26T07:49:42.417Z,10.70
2018-03-26T07:52:10.657Z,10.70
2018-03-26T07:54:38.900Z,10.70
2018-03-26T07:57:08.317Z,10.60
2018-03-26T07:59:36.553Z,10.60
2018-03-26T08:02:04.788Z,10.60
2018-03-26T08:04:33.060Z,10.70
2018-03-26T08:07:01.300Z,10.80
2018-03-26T08:09:29.940Z,10.80
2018-03-26T08:11:59.371Z,11.00
2018-03-26T08:16:57.506Z,11.20
2018-03-26T08:19:25.728Z,11.20
2018-03-26T08:21:55.468Z,11.30
2018-03-26T08:24:23.709Z,11.40
2018-03-26T08:26:52.181Z,11.60
2018-03-26T08:29:20.413Z,11.70
2018-03-26T08:31:48.656Z,11.90
2018-03-26T08:34:16.920Z,12.00
2018-03-26T08:36:45.156Z,12.20
2018-03-26T08:39:14.530Z,12.30
2018-03-26T08:41:43.084Z,12.60
2018-03-26T08:44:11.329Z,12.90
2018-03-26T08:46:39.557Z,13.30
2018-03-26T08:49:08.017Z,13.90
2018-03-26T08:51:37.025Z,14.60
2018-03-26T08:54:05.252Z,15.50
2018-03-26T08:56:33.748Z,16.50
2018-03-26T08:59:03.120Z,17.60
2018-03-26T09:01:31.362Z,19.00
2018-03-26T09:04:00.908Z,20.40
2018-03-26T09:06:29.540Z,21.80
2018-03-26T09:08:57.772Z,23.00
2018-03-26T09:11:26.821Z,24.00
2018-03-26T09:13:55.821Z,25.00
2018-03-26T09:16:24.053Z,25.50
2018-03-26T09:18:53.093Z,26.00
2018-03-26T09:21:21.324Z,26.50
2018-03-26T09:23:50.325Z,27.40
2018-03-26T09:26:18.904Z,28.10
2018-03-26T09:28:48.649Z,28.30
2018-03-26T09:31:16.880Z,28.80
2018-03-26T09:33:45.177Z,29.60
2018-03-26T09:36:13.416Z,30.30
2018-03-26T09:38:41.648Z,30.80
2018-03-26T09:41:09.924Z,31.20
2018-03-26T09:43:38.156Z,31.60
2018-03-26T09:48:35.996Z,32.50
2018-03-26T09:51:04.236Z,32.90
2018-03-26T09:53:32.473Z,33.10
2018-03-26T09:56:00.772Z,33.20
2018-03-26T09:58:29.774Z,33.30
2018-03-26T10:01:02.010Z,33.20
2018-03-26T10:03:31.013Z,33.40
2018-03-26T10:06:00.777Z,33.70
2018-03-26T10:08:29.152Z,33.60
2018-03-26T10:10:58.519Z,33.50
2018-03-26T10:13:26.748Z,33.20
2018-03-26T10:15:55.732Z,32.70
2018-03-26T10:18:24.724Z,31.80
2018-03-26T10:20:53.716Z,30.60
2018-03-26T10:23:22.173Z,29.90
2018-03-26T10:25:51.173Z,29.20
2018-03-26T10:28:19.621Z,28.70
2018-03-26T10:30:48.284Z,28.20
2018-03-26T10:33:17.645Z,27.80
2018-03-26T10:35:45.868Z,27.50
2018-03-26T10:38:14.221Z,27.30
2018-03-26T10:40:43.952Z,27.50
2018-03-26T10:43:12.943Z,27.50
2018-03-26T10:45:42.729Z,27.60
2018-03-26T10:50:40.392Z,27.60
2018-03-26T10:53:08.661Z,27.40
2018-03-26T10:55:36.883Z,27.10
2018-03-26T10:58:05.872Z,26.70
2018-03-26T11:00:35.093Z,26.30
2018-03-26T11:03:04.824Z,26.10
2018-03-26T11:05:33.813Z,26.40
2018-03-26T11:08:02.240Z,26.70
2018-03-26T11:10:31.238Z,27.10
2018-03-26T11:12:59.460Z,27.50
2018-03-26T11:17:58.180Z,27.40
2018-03-26T11:20:26.405Z,27.00
2018-03-26T11:22:54.668Z,26.40
2018-03-26T11:25:24.028Z,25.90
2018-03-26T11:27:52.244Z,25.50
2018-03-26T11:30:21.272Z,25.40
2018-03-26T11:32:50.261Z,25.20
2018-03-26T11:35:18.480Z,25.20
2018-03-26T11:37:47.513Z,25.30
2018-03-26T11:40:16.501Z,25.60
2018-03-26T11:42:44.720Z,25.70
2018-03-26T11:45:13.752Z,25.50
2018-03-26T11:47:42.740Z,24.70
2018-03-26T11:50:10.964Z,24.30
2018-03-26T11:52:40.181Z,24.40
2018-03-26T11:55:09.193Z,24.20
2018-03-26T11:57:37.396Z,24.00
2018-03-26T12:02:35.511Z,23.50
2018-03-26T12:05:03.736Z,23.70
2018-03-26T12:07:32.776Z,23.80
2018-03-26T12:10:01.001Z,23.80
2018-03-26T12:12:29.996Z,24.80
2018-03-26T12:14:58.255Z,25.10
2018-03-26T12:17:26.476Z,25.10
2018-03-26T12:20:06.657Z,24.80
2018-03-26T12:22:34.877Z,24.90
2018-03-26T12:25:07.525Z,25.10
2018-03-26T12:27:48.462Z,25.10
2018-03-26T12:30:27.204Z,25.60
2018-03-26T12:32:55.429Z,26.00
2018-03-26T12:35:35.734Z,26.30
2018-03-26T12:38:03.957Z,26.30
2018-03-26T12:40:44.369Z,26.10
2018-03-26T12:43:14.105Z,26.10
2018-03-26T12:45:54.212Z,26.30
2018-03-26T12:51:07.264Z,25.70
2018-03-26T12:53:35.884Z,25.30
2018-03-26T12:56:04.109Z,24.80
2018-03-26T12:58:52.080Z,24.40
2018-03-26T13:01:32.752Z,24.20
2018-03-26T13:04:01.012Z,24.00
2018-03-26T13:06:29.244Z,23.60
2018-03-26T13:08:57.472Z,23.10
2018-03-26T13:13:55.176Z,22.10
2018-03-26T13:18:53.869Z,21.80
2018-03-26T13:21:22.856Z,21.70
2018-03-26T13:23:51.080Z,21.60
2018-03-26T13:26:20.261Z,21.40
2018-03-26T13:28:49.252Z,21.10
2018-03-26T13:31:17.477Z,20.90
2018-03-26T13:33:45.763Z,20.80
2018-03-26T13:36:13.964Z,20.70
2018-03-26T13:38:42.184Z,20.50
2018-03-26T13:41:10.457Z,20.50
2018-03-26T13:43:40.185Z,20.60
2018-03-26T13:46:09.177Z,20.60
2018-03-26T13:48:38.200Z,20.40
2018-03-26T13:51:07.192Z,20.20
2018-03-26T13:53:35.421Z,20.20
2018-03-26T13:56:05.040Z,20.10
2018-03-26T13:58:33.259Z,19.90
2018-03-26T14:03:31.030Z,19.30
2018-03-26T14:05:59.256Z,19.20
2018-03-26T14:08:39.776Z,18.90
2018-03-26T14:13:56.105Z,18.20
2018-03-26T14:16:36.401Z,17.90
2018-03-26T14:21:35.629Z,17.50
2018-03-26T14:24:03.895Z,17.40
2018-03-26T14:26:32.117Z,17.40
2018-03-26T14:29:00.340Z,17.40
2018-03-26T14:31:28.564Z,17.20
2018-03-26T14:34:00.596Z,17.10
2018-03-26T14:36:30.326Z,17.10
2018-03-26T14:41:28.852Z,17.00
2018-03-26T14:43:57.076Z,17.00
2018-03-26T14:46:26.812Z,17.00
2018-03-26T14:48:55.884Z,16.80
2018-03-26T14:53:53.576Z,16.60
2018-03-26T14:56:23.461Z,16.60
2018-03-26T14:58:51.689Z,16.50
2018-03-26T15:01:19.923Z,16.50
2018-03-26T15:04:02.801Z,16.50
2018-03-26T15:06:31.793Z,16.60
2018-03-26T15:09:00.008Z,16.60
2018-03-26T15:11:28.372Z,16.60
2018-03-26T15:13:58.103Z,16.60
2018-03-26T15:16:26.331Z,16.50
2018-03-26T15:18:55.028Z,16.40
2018-03-26T15:21:24.392Z,16.30
2018-03-26T15:23:53.801Z,16.40
2018-03-26T15:26:23.983Z,16.20
2018-03-26T15:28:52.977Z,16.20
2018-03-26T15:31:21.200Z,16.20
2018-03-26T15:33:49.477Z,16.10
2018-03-26T15:36:17.705Z,16.00
2018-03-26T15:38:45.932Z,15.90
2018-03-26T15:41:14.220Z,15.80
2018-03-26T15:43:42.441Z,15.70
2018-03-26T15:46:11.440Z,15.60
2018-03-26T15:48:40.500Z,15.60
2018-03-26T15:51:08.730Z,15.50
2018-03-26T15:53:37.716Z,15.50
2018-03-26T15:56:06.372Z,15.40
2018-03-26T15:58:34.605Z,15.30
2018-03-26T16:01:02.833Z,15.20
2018-03-26T16:03:30.765Z,15.00
2018-03-26T16:05:58.992Z,15.00
2018-03-26T16:08:27.216Z,14.90
2018-03-26T16:10:56.664Z,14.90
2018-03-26T16:13:25.239Z,14.90
2018-03-26T16:15:53.657Z,14.80
2018-03-26T16:18:21.956Z,14.80
2018-03-26T16:20:50.952Z,14.70
2018-03-26T16:23:19.273Z,14.70
2018-03-26T16:25:47.541Z,14.60
2018-03-26T16:28:17.281Z,14.60
2018-03-26T16:30:45.517Z,14.50
2018-03-26T16:33:14.565Z,14.50
2018-03-26T16:38:12.265Z,14.40
2018-03-26T16:40:42.141Z,14.30
2018-03-26T16:43:10.406Z,14.20
2018-03-26T16:45:38.683Z,14.10
2018-03-26T16:48:07.136Z,14.10
2018-03-26T16:53:05.720Z,14.00
2018-03-26T16:55:34.744Z,14.00
2018-03-26T16:58:03.374Z,14.00
2018-03-26T17:00:31.597Z,13.90
2018-03-26T17:02:59.860Z,13.90
2018-03-26T17:05:29.597Z,13.90
2018-03-26T17:07:57.859Z,13.80
2018-03-26T17:10:26.304Z,13.80
2018-03-26T17:12:55.296Z,13.80
2018-03-26T17:15:24.367Z,13.80
2018-03-26T17:17:52.641Z,13.70
2018-03-26T17:20:21.634Z,13.70
2018-03-26T17:22:49.861Z,13.70
2018-03-26T17:27:48.717Z,13.70
2018-03-26T17:30:16.932Z,13.60
2018-03-26T17:32:45.440Z,13.60
2018-03-26T17:35:14.436Z,13.60
2018-03-26T17:37:42.748Z,13.60
2018-03-26T17:40:11.312Z,13.50
2018-03-26T17:42:39.544Z,13.50
2018-03-26T17:45:08.116Z,13.50
2018-03-26T17:47:38.411Z,13.40
2018-03-26T17:50:07.032Z,13.40
2018-03-26T17:52:35.258Z,13.40
2018-03-26T17:55:03.925Z,13.30
2018-03-26T17:57:33.301Z,13.20
2018-03-26T18:00:01.532Z,13.20
2018-03-26T18:02:29.841Z,13.20
2018-03-26T18:04:58.078Z,13.10
2018-03-26T18:07:26.358Z,13.10
2018-03-26T18:09:54.621Z,13.10
2018-03-26T18:12:23.436Z,13.10
2018-03-26T18:14:52.800Z,13.10
2018-03-26T18:17:22.800Z,13.00
2018-03-26T18:19:53.068Z,13.00
2018-03-26T18:22:21.688Z,13.00
2018-03-26T18:24:50.997Z,12.90
2018-03-26T18:27:19.989Z,12.80
2018-03-26T18:29:49.737Z,12.80
2018-03-26T18:32:18.273Z,12.70
2018-03-26T18:34:46.885Z,12.60
2018-03-26T18:37:15.517Z,12.60
2018-03-26T18:39:43.784Z,12.40
2018-03-26T18:42:12.032Z,12.30
2018-03-26T18:44:40.657Z,12.30
2018-03-26T18:47:09.280Z,12.30
2018-03-26T18:49:37.907Z,12.20
2018-03-26T18:52:06.137Z,12.20
2018-03-26T18:54:34.413Z,12.20
2018-03-26T18:57:02.697Z,12.00
2018-03-26T18:59:30.969Z,11.80
2018-03-26T19:04:30.538Z,11.50
2018-03-26T19:06:59.535Z,11.40
2018-03-26T19:09:30.992Z,11.40
2018-03-26T19:11:59.244Z,11.40
2018-03-26T19:14:27.641Z,11.40
2018-03-26T19:16:57.764Z,11.40
2018-03-26T19:19:26.000Z,11.30
2018-03-26T19:21:54.238Z,11.30
2018-03-26T19:24:22.613Z,11.30
2018-03-26T19:26:51.620Z,11.20
2018-03-26T19:29:19.856Z,11.20
2018-03-26T19:31:48.130Z,11.10
2018-03-26T19:34:17.961Z,11.10
2018-03-26T19:36:46.972Z,11.00
2018-03-26T19:39:16.321Z,11.00
2018-03-26T19:41:44.560Z,11.00
2018-03-26T19:44:12.800Z,10.90
2018-03-26T19:46:42.216Z,10.90
2018-03-26T19:49:10.533Z,10.90
2018-03-26T19:51:38.773Z,11.00
2018-03-26T19:54:07.217Z,11.00
2018-03-26T19:56:35.465Z,10.90
2018-03-26T19:59:03.756Z,10.90
2018-03-26T20:01:34.002Z,11.00
2018-03-26T20:04:02.286Z,11.00
2018-03-26T20:06:31.329Z,10.90
2018-03-26T20:11:30.201Z,10.80
2018-03-26T20:13:59.589Z,10.80
2018-03-26T20:16:27.897Z,10.70
2018-03-26T20:18:56.140Z,10.70
2018-03-26T20:21:25.150Z,10.70
2018-03-26T20:23:54.241Z,10.60
2018-03-26T20:26:22.481Z,10.50
2018-03-26T20:28:50.716Z,10.50
2018-03-26T20:31:19.349Z,10.40
2018-03-26T20:33:47.704Z,10.40
2018-03-26T20:36:16.796Z,10.30
2018-03-26T20:38:45.069Z,10.30
2018-03-26T20:41:14.812Z,10.20
2018-03-26T20:43:43.058Z,10.20
2018-03-26T20:50:07.312Z,10.00
2018-03-26T20:52:36.365Z,9.90
2018-03-26T20:55:04.672Z,9.80
2018-03-26T20:57:33.675Z,9.80
2018-03-26T21:00:01.944Z,9.70
2018-03-26T21:02:30.229Z,9.70
2018-03-26T21:04:58.458Z,9.60
2018-03-26T21:07:26.967Z,9.60
2018-03-26T21:09:55.983Z,9.60
2018-03-26T21:12:24.220Z,9.50
2018-03-26T21:14:52.605Z,9.50
2018-03-26T21:17:20.874Z,9.40
2018-03-26T21:19:49.117Z,9.30
2018-03-26T21:22:17.552Z,9.30
2018-03-26T21:24:46.963Z,9.20
2018-03-26T21:29:46.112Z,9.10
2018-03-26T21:32:15.112Z,9.10
2018-03-26T21:34:43.340Z,9.00
2018-03-26T21:37:11.795Z,9.00
2018-03-26T21:39:40.424Z,8.90
2018-03-26T21:42:08.667Z,8.90
2018-03-26T21:47:07.633Z,8.80
2018-03-26T21:49:36.676Z,8.80
2018-03-26T21:52:04.948Z,8.70
2018-03-26T21:54:33.949Z,8.70
2018-03-26T21:57:02.180Z,8.70
2018-03-26T21:59:30.447Z,8.60
2018-03-26T22:01:58.684Z,8.60
2018-03-26T22:04:26.973Z,8.50
2018-03-26T22:06:55.488Z,8.50
2018-03-26T22:09:23.728Z,8.50
2018-03-26T22:11:51.961Z,8.50
2018-03-26T22:14:21.028Z,8.50
2018-03-26T22:16:49.260Z,8.50
2018-03-26T22:19:17.488Z,8.50
2018-03-26T22:21:46.154Z,8.50
2018-03-26T22:24:15.521Z,8.40
2018-03-26T22:29:14.796Z,8.60
2018-03-26T22:31:44.541Z,8.60
2018-03-26T22:34:13.909Z,8.50
2018-03-26T22:36:42.288Z,8.60
2018-03-26T22:39:10.535Z,8.50
2018-03-26T22:41:38.757Z,8.50
2018-03-26T22:44:07.192Z,8.50
2018-03-26T22:49:04.903Z,8.50
2018-03-26T22:51:33.565Z,8.50
2018-03-26T22:54:03.313Z,8.50
2018-03-26T22:56:31.544Z,8.50
2018-03-26T22:58:59.817Z,8.50
2018-03-26T23:01:29.184Z,8.50
2018-03-26T23:06:27.517Z,8.50
2018-03-26T23:08:55.752Z,8.50
2018-03-26T23:11:23.985Z,8.50
2018-03-26T23:13:52.736Z,8.50
2018-03-26T23:16:21.737Z,8.50
2018-03-26T23:18:50.757Z,8.40
2018-03-26T23:21:19.017Z,8.50
2018-03-26T23:23:47.252Z,8.40
2018-03-26T23:26:16.257Z,8.40
2018-03-26T23:28:44.532Z,8.40
2018-03-26T23:31:13.156Z,8.40
2018-03-26T23:33:41.392Z,8.30
2018-03-26T23:36:09.669Z,8.30
2018-03-26T23:38:37.900Z,8.20
2018-03-26T23:41:06.901Z,8.20
2018-03-26T23:43:35.392Z,8.20
2018-03-26T23:46:03.626Z,8.20
2018-03-26T23:48:31.847Z,8.20
2018-03-26T23:51:00.121Z,8.10
2018-03-26T23:53:28.352Z,8.10
2018-03-26T23:55:56.581Z,8.10
2018-03-26T23:58:25.612Z,8.10
